createdAt,value
2022-07-28T00:06:02.193Z,1.33
2022-07-28T00:14:24.099Z,1.20
2022-07-28T00:22:46.810Z,2.15
2022-07-28T00:31:09.772Z,0.95
2022-07-28T00:39:34.190Z,1.20
2022-07-28T00:47:55.779Z,1.20
2022-07-28T00:56:18.549Z,1.42
2022-07-28T01:04:40.429Z,1.17
2022-07-28T01:13:02.518Z,1.40
2022-07-28T01:21:31.749Z,1.17
2022-07-28T01:30:21.731Z,1.45
2022-07-28T01:38:49.690Z,1.55
2022-07-28T01:47:12.285Z,1.77
2022-07-28T01:55:36.199Z,1.17
2022-07-28T02:03:58.583Z,1.40
2022-07-28T02:12:21.017Z,1.23
2022-07-28T02:20:43.556Z,1.20
2022-07-28T02:29:33.326Z,1.48
2022-07-28T02:38:10.372Z,1.70
2022-07-28T02:46:39.229Z,1.40
2022-07-28T02:55:04.225Z,1.42
2022-07-28T03:03:27.712Z,1.08
2022-07-28T03:11:54.017Z,1.10
2022-07-28T03:20:15.681Z,1.05
2022-07-28T03:28:38.109Z,1.35
2022-07-28T03:37:12.059Z,1.15
2022-07-28T03:45:34.978Z,1.63
2022-07-28T03:53:57.021Z,1.30
2022-07-28T04:02:20.892Z,1.40
2022-07-28T04:10:45.338Z,1.35
2022-07-28T04:19:27.530Z,2.13
2022-07-28T04:27:49.459Z,1.70
2022-07-28T04:36:11.780Z,1.80
2022-07-28T04:44:34.380Z,1.48
2022-07-28T04:52:55.978Z,2.00
2022-07-28T05:01:17.773Z,2.05
2022-07-28T05:09:39.727Z,2.17
2022-07-28T05:18:01.467Z,1.67
2022-07-28T05:26:23.429Z,1.80
2022-07-28T05:34:45.557Z,1.75
2022-07-28T05:43:07.266Z,1.80
2022-07-28T05:51:28.883Z,1.13
2022-07-28T05:59:50.810Z,1.90
2022-07-28T06:08:12.510Z,1.63
2022-07-28T06:16:34.275Z,1.48
2022-07-28T06:24:55.972Z,1.83
2022-07-28T06:33:18.009Z,2.80
2022-07-28T06:41:44.614Z,1.80
2022-07-28T06:50:06.830Z,1.35
2022-07-28T06:58:48.513Z,0.90
2022-07-28T07:07:14.962Z,1.00
2022-07-28T07:15:39.050Z,1.23
2022-07-28T07:24:00.748Z,1.08
2022-07-28T07:32:24.560Z,0.80
2022-07-28T07:40:46.480Z,0.60
2022-07-28T07:49:08.263Z,0.73
2022-07-28T07:57:32.011Z,0.90
2022-07-28T08:05:56.656Z,0.90
2022-07-28T08:14:19.413Z,0.88
2022-07-28T08:22:54.449Z,0.95
2022-07-28T08:31:17.935Z,1.23
2022-07-28T08:39:40.675Z,0.65
2022-07-28T08:48:10.277Z,1.02
2022-07-28T08:56:32.416Z,1.15
2022-07-28T09:04:55.570Z,0.60
2022-07-28T09:13:18.057Z,0.80
2022-07-28T09:21:41.867Z,0.52
2022-07-28T09:30:03.707Z,0.80
2022-07-28T09:38:26.351Z,0.70
2022-07-28T09:46:49.263Z,0.70
2022-07-28T09:55:12.026Z,0.70
2022-07-28T10:03:35.817Z,0.57
2022-07-28T10:12:17.189Z,0.60
2022-07-28T10:20:38.959Z,0.82
2022-07-28T10:29:09.543Z,0.60
2022-07-28T10:37:34.385Z,0.80
2022-07-28T10:46:05.440Z,0.80
2022-07-28T10:54:29.819Z,0.80
2022-07-28T11:02:59.327Z,0.95
2022-07-28T11:11:40.898Z,0.90
2022-07-28T11:28:57.508Z,0.80
2022-07-28T11:37:19.304Z,1.10
2022-07-28T11:45:47.310Z,1.00
2022-07-28T11:54:25.439Z,0.88
2022-07-28T12:02:49.133Z,0.80
2022-07-28T12:11:11.235Z,0.80
2022-07-28T12:19:59.923Z,0.77
2022-07-28T12:28:22.961Z,0.80
2022-07-28T12:36:47.804Z,0.65
2022-07-28T12:45:10.389Z,0.63
2022-07-28T12:54:00.566Z,0.60
2022-07-28T13:02:41.866Z,0.63
2022-07-28T13:11:28.165Z,0.80
2022-07-28T13:20:07.875Z,0.70
2022-07-28T13:28:50.121Z,0.85
2022-07-28T13:37:12.109Z,0.65
2022-07-28T13:45:35.444Z,0.88
2022-07-28T13:53:57.979Z,1.10
2022-07-28T14:02:20.014Z,0.93
2022-07-28T14:10:41.660Z,0.70
2022-07-28T14:19:13.924Z,0.85
2022-07-28T14:27:38.139Z,0.70
2022-07-28T14:35:59.760Z,0.93
2022-07-28T14:44:24.542Z,0.70
2022-07-28T14:52:46.413Z,0.75
2022-07-28T15:01:08.154Z,0.70
2022-07-28T15:09:29.827Z,0.90
2022-07-28T15:17:51.679Z,0.50
2022-07-28T15:26:14.407Z,1.00
2022-07-28T15:34:37.201Z,0.63
2022-07-28T15:43:01.593Z,0.93
2022-07-28T15:51:26.026Z,0.98
2022-07-28T16:08:11.712Z,0.90
2022-07-28T16:16:33.879Z,0.77
2022-07-28T16:24:55.561Z,1.13
2022-07-28T16:33:17.705Z,1.35
2022-07-28T16:41:46.507Z,1.00
2022-07-28T16:50:13.082Z,0.90
2022-07-28T16:58:34.793Z,0.80
2022-07-28T17:06:56.680Z,0.50
2022-07-28T17:15:20.072Z,0.85
2022-07-28T17:23:44.860Z,0.90
2022-07-28T17:32:06.535Z,1.00
2022-07-28T17:40:28.224Z,0.50
2022-07-28T17:48:49.990Z,0.85
2022-07-28T17:57:11.925Z,1.02
2022-07-28T18:05:33.819Z,1.10
2022-07-28T18:14:04.173Z,1.02
2022-07-28T18:22:27.114Z,1.17
2022-07-28T18:30:48.783Z,1.30
2022-07-28T18:39:10.706Z,1.23
2022-07-28T18:47:33.401Z,0.77
2022-07-28T18:55:55.040Z,0.88
2022-07-28T19:04:16.905Z,0.95
2022-07-28T19:12:38.988Z,0.90
2022-07-28T19:21:00.655Z,0.82
2022-07-28T19:29:23.225Z,0.90
2022-07-28T19:37:45.036Z,0.88
2022-07-28T19:46:07.154Z,1.00
2022-07-28T19:54:29.967Z,0.82
2022-07-28T20:02:51.670Z,0.90
2022-07-28T20:11:14.712Z,0.90
2022-07-28T20:19:37.744Z,1.35
2022-07-28T20:27:59.482Z,1.00
2022-07-28T20:36:23.864Z,0.95
2022-07-28T20:44:47.904Z,0.70
2022-07-28T20:53:10.661Z,0.88
2022-07-28T21:01:32.461Z,0.80
2022-07-28T21:09:54.475Z,1.08
2022-07-28T21:18:18.181Z,1.00
2022-07-28T21:26:42.355Z,1.38
2022-07-28T21:35:04.112Z,1.10
2022-07-28T21:43:26.369Z,1.13
2022-07-28T21:51:48.062Z,1.00
2022-07-28T22:00:12.166Z,1.20
2022-07-28T22:08:34.182Z,1.25
2022-07-28T22:16:56.096Z,1.30
2022-07-28T22:25:19.085Z,1.48
2022-07-28T22:33:41.358Z,1.10
2022-07-28T22:42:04.807Z,1.10
2022-07-28T22:50:26.426Z,1.27
2022-07-28T22:58:48.112Z,1.63
2022-07-28T23:07:13.912Z,1.40
2022-07-28T23:15:41.116Z,2.28
2022-07-28T23:24:04.152Z,1.63
2022-07-28T23:32:26.974Z,1.35
2022-07-28T23:40:48.583Z,1.98
2022-07-28T23:49:10.379Z,1.90
2022-07-28T23:57:32.283Z,1.73
